createdAt,value
2022-09-26T00:01:22.706Z,95188.22
2022-09-26T00:03:57.855Z,95185.78
2022-09-26T00:06:25.252Z,95177.03
2022-09-26T00:08:53.116Z,95183.38
2022-09-26T00:11:27.439Z,95183.59
2022-09-26T00:13:56.671Z,95179.13
2022-09-26T00:16:23.280Z,95174.84
2022-09-26T00:18:51.583Z,95185.66
2022-09-26T00:21:19.369Z,95182.91
2022-09-26T00:23:47.825Z,95171.88
2022-09-26T00:26:16.818Z,95175.88
2022-09-26T00:28:43.381Z,95167.94
2022-09-26T00:31:15.808Z,95166.09
2022-09-26T00:33:43.123Z,95175.88
2022-09-26T00:36:09.879Z,95172.19
2022-09-26T00:38:36.929Z,95169.75
2022-09-26T00:41:04.503Z,95168.50
2022-09-26T00:43:41.352Z,95161.38
2022-09-26T00:46:28.934Z,95160.78
2022-09-26T00:49:21.563Z,95164.03
2022-09-26T00:51:57.125Z,95162.16
2022-09-26T00:54:25.109Z,95171.16
2022-09-26T00:56:56.650Z,95158.94
2022-09-26T00:59:27.588Z,95158.94
2022-09-26T01:01:58.564Z,95151.44
2022-09-26T01:04:28.441Z,95158.94
2022-09-26T01:07:00.002Z,95138.53
2022-09-26T01:09:27.391Z,95142.00
2022-09-26T01:11:54.628Z,95133.47
2022-09-26T01:14:22.265Z,95137.72
2022-09-26T01:16:53.704Z,95137.16
2022-09-26T01:19:54.149Z,95126.81
2022-09-26T01:22:33.055Z,95121.50
2022-09-26T01:25:35.030Z,95113.75
2022-09-26T01:28:21.133Z,95118.25
2022-09-26T01:31:08.861Z,95124.25
2022-09-26T01:33:45.811Z,95116.09
2022-09-26T01:36:15.040Z,95103.84
2022-09-26T01:38:50.588Z,95113.63
2022-09-26T01:41:32.998Z,95114.09
2022-09-26T01:44:06.486Z,95113.53
2022-09-26T01:46:40.911Z,95108.44
2022-09-26T01:49:20.509Z,95110.63
2022-09-26T01:52:10.515Z,95106.38
2022-09-26T01:54:43.183Z,95093.94
2022-09-26T01:57:15.192Z,95094.97
2022-09-26T01:59:51.829Z,95094.97
2022-09-26T02:02:25.989Z,95098.66
2022-09-26T02:05:14.246Z,95088.06
2022-09-26T02:07:45.971Z,95090.47
2022-09-26T02:10:22.842Z,95093.38
2022-09-26T02:12:55.381Z,95084.84
2022-09-26T02:15:25.658Z,95081.38
2022-09-26T02:17:58.896Z,95084.84
2022-09-26T02:20:31.398Z,95081.72
2022-09-26T02:23:01.110Z,95089.91
2022-09-26T02:25:28.487Z,95094.75
2022-09-26T02:27:55.226Z,95088.19
2022-09-26T02:30:22.136Z,95089.56
2022-09-26T02:32:49.073Z,95079.53
2022-09-26T02:35:35.128Z,95072.16
2022-09-26T02:38:02.209Z,95062.94
2022-09-26T02:40:36.825Z,95060.28
2022-09-26T02:43:40.842Z,95070.09
2022-09-26T02:46:39.803Z,95062.72
2022-09-26T02:49:12.415Z,95062.16
2022-09-26T02:52:02.152Z,95053.38
2022-09-26T02:54:31.886Z,95041.72
2022-09-26T02:57:16.703Z,95047.38
2022-09-26T03:00:03.161Z,95044.28
2022-09-26T03:02:54.160Z,95044.28
2022-09-26T03:05:27.618Z,95040.34
2022-09-26T03:08:15.811Z,95035.75
2022-09-26T03:10:42.561Z,95030.22
2022-09-26T03:13:13.313Z,95024.22
2022-09-26T03:15:42.138Z,95023.75
2022-09-26T03:18:13.882Z,95025.38
2022-09-26T03:20:41.546Z,95025.38
2022-09-26T03:23:08.163Z,95025.13
2022-09-26T03:25:34.803Z,95027.53
2022-09-26T03:28:02.394Z,95021.22
2022-09-26T03:30:29.955Z,95015.34
2022-09-26T03:32:56.497Z,95025.72
2022-09-26T03:35:23.047Z,95018.34
2022-09-26T03:37:49.663Z,95022.59
2022-09-26T03:40:16.286Z,95022.34
2022-09-26T03:42:42.867Z,95020.75
2022-09-26T03:45:10.729Z,95011.75
2022-09-26T03:47:42.042Z,95001.94
2022-09-26T03:50:09.478Z,95009.66
2022-09-26T03:52:36.630Z,94997.81
2022-09-26T03:55:04.549Z,94999.41
2022-09-26T03:57:31.108Z,95000.66
2022-09-26T03:59:57.661Z,94995.94
2022-09-26T04:02:24.319Z,94992.81
2022-09-26T04:04:50.967Z,94981.19
2022-09-26T04:07:17.561Z,94973.00
2022-09-26T04:09:44.212Z,94973.31
2022-09-26T04:12:10.824Z,94974.69
2022-09-26T04:14:37.469Z,94978.72
2022-09-26T04:17:04.116Z,94975.59
2022-09-26T04:19:31.342Z,94975.00
2022-09-26T04:21:59.496Z,94979.88
2022-09-26T04:24:26.132Z,94987.34
2022-09-26T04:26:52.727Z,94985.28
2022-09-26T04:29:19.326Z,94987.44
2022-09-26T04:31:46.035Z,94985.81
2022-09-26T04:34:12.815Z,94981.56
2022-09-26T04:36:39.384Z,94976.97
2022-09-26T04:39:06.550Z,94973.03
2022-09-26T04:41:33.462Z,94978.91
2022-09-26T04:44:00.218Z,94971.34
2022-09-26T04:46:31.034Z,94976.06
2022-09-26T04:48:59.843Z,94975.59
2022-09-26T04:51:27.967Z,94975.59
2022-09-26T04:53:54.966Z,94972.47
2022-09-26T04:56:23.972Z,94963.47
2022-09-26T04:58:51.114Z,94952.06
2022-09-26T05:01:20.189Z,94945.16
2022-09-26T05:03:46.761Z,94944.91
2022-09-26T05:06:15.037Z,94957.78
2022-09-26T05:08:44.674Z,94949.34
2022-09-26T05:11:11.331Z,94955.22
2022-09-26T05:13:38.947Z,94950.97
2022-09-26T05:16:08.827Z,94946.00
2022-09-26T05:18:36.553Z,94944.69
2022-09-26T05:21:05.952Z,94953.22
2022-09-26T05:23:51.548Z,94949.19
2022-09-26T05:26:29.785Z,94954.06
2022-09-26T05:29:06.856Z,94944.78
2022-09-26T05:31:37.607Z,94950.09
2022-09-26T05:34:13.161Z,94941.66
2022-09-26T05:36:42.862Z,94942.47
2022-09-26T05:39:29.392Z,94934.75
2022-09-26T05:41:57.003Z,94944.88
2022-09-26T05:44:23.554Z,94948.25
2022-09-26T05:46:51.981Z,94943.53
2022-09-26T05:49:18.694Z,94938.78
2022-09-26T05:51:45.298Z,94931.03
2022-09-26T05:54:11.964Z,94943.03
2022-09-26T05:56:38.501Z,94947.88
2022-09-26T05:59:05.920Z,94944.97
2022-09-26T06:01:34.034Z,94945.53
2022-09-26T06:04:02.883Z,94938.31
2022-09-26T06:06:30.402Z,94943.63
2022-09-26T06:08:57.302Z,94929.28
2022-09-26T06:11:30.917Z,94933.09
2022-09-26T06:13:59.359Z,94931.22
2022-09-26T06:16:26.803Z,94934.91
2022-09-26T06:18:55.675Z,94934.91
2022-09-26T06:21:23.186Z,94927.53
2022-09-26T06:23:49.774Z,94913.69
2022-09-26T06:26:20.609Z,94907.81
2022-09-26T06:28:47.616Z,94902.75
2022-09-26T06:31:17.303Z,94901.94
2022-09-26T06:33:44.166Z,94895.03
2022-09-26T06:36:11.952Z,94898.50
2022-09-26T06:38:38.810Z,94901.16
2022-09-26T06:41:07.513Z,94899.59
2022-09-26T06:43:34.778Z,94888.22
2022-09-26T06:46:01.867Z,94892.78
2022-09-26T06:48:28.450Z,94900.50
2022-09-26T06:50:57.163Z,94894.38
2022-09-26T06:53:23.931Z,94896.19
2022-09-26T06:55:50.523Z,94897.78
2022-09-26T06:58:17.723Z,94905.50
2022-09-26T07:00:44.604Z,94904.69
2022-09-26T07:03:13.504Z,94903.06
2022-09-26T07:05:40.029Z,94895.69
2022-09-26T07:08:07.073Z,94899.69
2022-09-26T07:10:37.610Z,94898.09
2022-09-26T07:13:09.490Z,94903.41
2022-09-26T07:15:37.540Z,94897.78
2022-09-26T07:18:06.530Z,94903.56
2022-09-26T07:20:36.907Z,94903.25
2022-09-26T07:23:05.430Z,94886.66
2022-09-26T07:25:33.426Z,94899.69
2022-09-26T07:28:01.117Z,94899.19
2022-09-26T07:30:28.434Z,94908.88
2022-09-26T07:33:03.922Z,94903.88
2022-09-26T07:35:35.461Z,94910.47
2022-09-26T07:38:03.513Z,94911.53
2022-09-26T07:40:30.219Z,94912.63
2022-09-26T07:43:19.017Z,94912.75
2022-09-26T07:46:04.702Z,94912.00
2022-09-26T07:48:49.459Z,94914.19
2022-09-26T07:51:16.337Z,94907.59
2022-09-26T07:53:42.922Z,94901.81
2022-09-26T07:56:12.824Z,94899.72
2022-09-26T07:58:41.891Z,94901.31
2022-09-26T08:01:11.565Z,94901.88
2022-09-26T08:03:42.718Z,94891.25
2022-09-26T08:06:09.820Z,94891.59
2022-09-26T08:08:37.082Z,94889.16
2022-09-26T08:11:04.604Z,94883.28
2022-09-26T08:13:32.819Z,94885.72
2022-09-26T08:16:06.064Z,94884.09
2022-09-26T08:18:33.675Z,94880.41
2022-09-26T08:21:03.449Z,94865.28
2022-09-26T08:23:29.978Z,94865.63
2022-09-26T08:25:56.546Z,94861.09
2022-09-26T08:28:24.036Z,94849.69
2022-09-26T08:30:50.662Z,94850.47
2022-09-26T08:33:19.068Z,94846.19
2022-09-26T08:35:45.694Z,94848.84
2022-09-26T08:38:15.235Z,94843.56
2022-09-26T08:40:57.765Z,94844.56
2022-09-26T08:43:52.299Z,94842.97
2022-09-26T08:46:37.866Z,94837.22
2022-09-26T08:49:32.036Z,94839.41
2022-09-26T08:52:01.420Z,94835.69
2022-09-26T08:54:29.219Z,94844.72
2022-09-26T08:57:01.048Z,94849.03
2022-09-26T08:59:33.842Z,94845.63
2022-09-26T09:02:05.213Z,94842.72
2022-09-26T09:04:41.026Z,94842.50
2022-09-26T09:07:21.896Z,94838.00
2022-09-26T09:09:49.599Z,94837.66
2022-09-26T09:12:31.365Z,94834.47
2022-09-26T09:15:45.516Z,94831.56
2022-09-26T09:18:39.625Z,94824.06
2022-09-26T09:21:19.417Z,94819.25
2022-09-26T09:23:51.729Z,94825.38
2022-09-26T09:29:49.363Z,94836.81
2022-09-26T09:32:23.115Z,94840.56
2022-09-26T09:34:53.800Z,94840.31
2022-09-26T09:37:40.962Z,94844.84
2022-09-26T09:40:23.895Z,94833.16
2022-09-26T09:43:00.409Z,94834.75
2022-09-26T09:45:32.922Z,94844.91
2022-09-26T09:47:59.813Z,94845.69
2022-09-26T09:50:28.990Z,94832.66
2022-09-26T09:53:10.890Z,94834.84
2022-09-26T09:56:14.979Z,94830.66
2022-09-26T09:58:58.025Z,94835.91
2022-09-26T10:01:28.592Z,94836.63
2022-09-26T10:04:36.566Z,94839.84
2022-09-26T10:07:05.332Z,94838.06
2022-09-26T10:09:46.318Z,94843.03
2022-09-26T10:12:17.065Z,94840.72
2022-09-26T10:14:56.630Z,94850.06
2022-09-26T10:17:24.206Z,94855.94
2022-09-26T10:19:51.411Z,94849.00
2022-09-26T10:22:35.845Z,94840.00
2022-09-26T10:25:08.575Z,94856.72
2022-09-26T10:27:38.565Z,94855.75
2022-09-26T10:30:17.320Z,94846.72
2022-09-26T10:32:47.435Z,94848.81
2022-09-26T10:35:24.342Z,94845.63
2022-09-26T10:38:08.044Z,94839.00
2022-09-26T10:40:48.023Z,94841.09
2022-09-26T10:43:21.046Z,94844.81
2022-09-26T10:45:50.524Z,94831.28
2022-09-26T10:48:22.001Z,94838.25
2022-09-26T10:50:55.695Z,94830.84
2022-09-26T10:53:23.287Z,94831.41
2022-09-26T10:55:57.656Z,94831.41
2022-09-26T10:58:29.618Z,94826.91
2022-09-26T11:01:00.204Z,94828.00
2022-09-26T11:03:44.865Z,94816.66
2022-09-26T11:06:34.741Z,94824.13
2022-09-26T11:09:03.601Z,94823.88
2022-09-26T11:11:37.118Z,94819.44
2022-09-26T11:14:07.670Z,94821.38
2022-09-26T11:16:44.750Z,94819.59
2022-09-26T11:19:33.129Z,94828.06
2022-09-26T11:22:19.387Z,94818.47
2022-09-26T11:25:06.744Z,94815.81
2022-09-26T11:27:43.465Z,94814.84
2022-09-26T11:30:19.184Z,94813.56
2022-09-26T11:32:50.116Z,94815.25
2022-09-26T11:35:29.849Z,94809.97
2022-09-26T11:38:05.761Z,94805.53
2022-09-26T11:40:44.395Z,94802.88
2022-09-26T11:43:45.689Z,94801.75
2022-09-26T11:46:34.295Z,94799.09
2022-09-26T11:49:38.382Z,94801.25
2022-09-26T11:53:03.807Z,94802.31
2022-09-26T11:55:42.314Z,94801.28
2022-09-26T11:58:29.451Z,94804.50
2022-09-26T12:01:17.844Z,94799.97
2022-09-26T12:03:57.332Z,94800.22
2022-09-26T12:06:41.892Z,94792.16
2022-09-26T12:09:34.882Z,94795.06
2022-09-26T12:12:24.482Z,94802.78
2022-09-26T12:15:20.185Z,94792.16
2022-09-26T12:18:24.180Z,94801.50
2022-09-26T12:21:16.382Z,94802.78
2022-09-26T12:24:00.477Z,94801.81
2022-09-26T12:26:59.450Z,94805.28
2022-09-26T12:29:31.910Z,94795.41
2022-09-26T12:32:28.698Z,94804.50
2022-09-26T12:35:18.808Z,94795.78
2022-09-26T12:37:58.363Z,94798.97
2022-09-26T12:40:34.662Z,94803.78
2022-09-26T12:43:22.088Z,94796.38
2022-09-26T12:46:08.623Z,94794.53
2022-09-26T12:48:35.170Z,94790.78
2022-09-26T12:51:22.318Z,94795.63
2022-09-26T12:54:07.270Z,94792.97
2022-09-26T12:56:59.286Z,94796.16
2022-09-26T12:59:45.759Z,94787.13
2022-09-26T13:02:33.499Z,94778.09
2022-09-26T13:05:36.229Z,94783.41
2022-09-26T13:08:11.280Z,94783.97
2022-09-26T13:10:53.222Z,94781.31
2022-09-26T13:13:32.672Z,94782.41
2022-09-26T13:16:02.373Z,94775.28
2022-09-26T13:18:37.328Z,94772.66
2022-09-26T13:21:12.289Z,94776.69
2022-09-26T13:23:43.727Z,94773.25
2022-09-26T13:26:16.607Z,94773.28
2022-09-26T13:29:12.898Z,94772.03
2022-09-26T13:32:11.176Z,94772.06
2022-09-26T13:34:45.200Z,94771.84
2022-09-26T13:37:29.074Z,94766.53
2022-09-26T13:40:36.149Z,94770.53
2022-09-26T13:43:12.523Z,94769.75
2022-09-26T13:46:00.624Z,94766.38
2022-09-26T13:48:33.203Z,94753.91
2022-09-26T13:51:26.608Z,94763.56
2022-09-26T13:53:58.888Z,94764.34
2022-09-26T13:56:31.316Z,94762.25
2022-09-26T13:59:12.988Z,94758.00
2022-09-26T14:02:00.400Z,94754.28
2022-09-26T14:04:36.875Z,94760.66
2022-09-26T14:07:29.069Z,94761.66
2022-09-26T14:10:01.620Z,94755.00
2022-09-26T14:13:13.821Z,94756.81
2022-09-26T14:15:49.530Z,94751.81
2022-09-26T14:18:31.340Z,94741.97
2022-09-26T14:21:05.577Z,94746.78
2022-09-26T14:23:47.199Z,94755.88
2022-09-26T14:26:19.320Z,94751.88
2022-09-26T14:29:11.130Z,94748.41
2022-09-26T14:31:39.848Z,94746.84
2022-09-26T14:34:17.184Z,94738.84
2022-09-26T14:36:45.627Z,94745.78
2022-09-26T14:39:44.070Z,94747.91
2022-09-26T14:42:24.842Z,94748.97
2022-09-26T14:44:57.467Z,94754.28
2022-09-26T14:47:26.535Z,94747.38
2022-09-26T14:49:58.851Z,94749.22
2022-09-26T14:52:26.244Z,94746.03
2022-09-26T14:54:58.887Z,94739.41
2022-09-26T14:57:29.646Z,94748.47
2022-09-26T14:59:57.196Z,94757.00
2022-09-26T15:02:28.864Z,94749.56
2022-09-26T15:05:11.365Z,94756.50
2022-09-26T15:07:56.999Z,94751.16
2022-09-26T15:10:43.774Z,94749.00
2022-09-26T15:13:29.982Z,94748.97
2022-09-26T15:16:09.743Z,94747.69
2022-09-26T15:18:51.212Z,94746.34
2022-09-26T15:21:21.035Z,94745.84
2022-09-26T15:23:51.209Z,94749.03
2022-09-26T15:26:31.959Z,94744.50
2022-09-26T15:29:00.175Z,94756.25
2022-09-26T15:31:26.839Z,94759.69
2022-09-26T15:34:01.629Z,94749.56
2022-09-26T15:36:30.253Z,94748.47
2022-09-26T15:38:57.977Z,94754.56
2022-09-26T15:41:44.807Z,94755.91
2022-09-26T15:44:23.621Z,94760.97
2022-09-26T15:46:51.061Z,94761.22
2022-09-26T15:49:22.955Z,94759.31
2022-09-26T15:51:55.173Z,94762.25
2022-09-26T15:54:29.614Z,94766.75
2022-09-26T15:57:00.479Z,94761.69
2022-09-26T15:59:37.421Z,94761.16
2022-09-26T16:02:31.181Z,94755.78
2022-09-26T16:04:58.657Z,94757.66
2022-09-26T16:07:28.002Z,94745.13
2022-09-26T16:09:56.205Z,94754.47
2022-09-26T16:12:26.470Z,94756.31
2022-09-26T16:15:06.066Z,94747.00
2022-09-26T16:17:49.244Z,94752.59
2022-09-26T16:20:15.994Z,94746.97
2022-09-26T16:22:46.956Z,94738.19
2022-09-26T16:25:19.547Z,94746.16
2022-09-26T16:27:59.792Z,94740.03
2022-09-26T16:30:29.889Z,94742.66
2022-09-26T16:33:02.481Z,94742.66
2022-09-26T16:35:31.585Z,94745.59
2022-09-26T16:38:00.465Z,94746.13
2022-09-26T16:40:30.052Z,94742.91
2022-09-26T16:43:18.948Z,94743.41
2022-09-26T16:45:56.465Z,94743.13
2022-09-26T16:48:39.392Z,94739.09
2022-09-26T16:51:15.340Z,94748.16
2022-09-26T16:53:47.596Z,94736.41
2022-09-26T16:56:21.838Z,94740.41
2022-09-26T16:58:55.532Z,94743.59
2022-09-26T17:01:41.827Z,94750.22
2022-09-26T17:04:16.182Z,94752.31
2022-09-26T17:06:42.844Z,94746.72
2022-09-26T17:09:16.096Z,94749.63
2022-09-26T17:11:47.293Z,94750.69
2022-09-26T17:14:20.234Z,94738.69
2022-09-26T17:16:51.870Z,94738.94
2022-09-26T17:19:18.664Z,94728.81
2022-09-26T17:21:47.285Z,94728.28
2022-09-26T17:24:28.722Z,94734.63
2022-09-26T17:27:01.853Z,94739.66
2022-09-26T17:29:35.181Z,94751.00
2022-09-26T17:32:05.062Z,94757.38
2022-09-26T17:34:34.884Z,94761.06
2022-09-26T17:37:01.567Z,94754.09
2022-09-26T17:39:29.427Z,94756.22
2022-09-26T17:41:59.123Z,94757.84
2022-09-26T17:44:26.251Z,94763.16
2022-09-26T17:46:56.317Z,94757.84
2022-09-26T17:49:30.718Z,94762.66
2022-09-26T17:52:00.630Z,94766.91
2022-09-26T17:54:47.362Z,94764.22
2022-09-26T17:57:14.257Z,94760.53
2022-09-26T17:59:42.286Z,94758.91
2022-09-26T18:02:26.954Z,94759.16
2022-09-26T18:04:54.751Z,94759.69
2022-09-26T18:07:22.452Z,94765.81
2022-09-26T18:09:51.331Z,94763.16
2022-09-26T18:12:24.997Z,94763.94
2022-09-26T18:14:51.952Z,94757.84
2022-09-26T18:17:18.891Z,94760.44
2022-09-26T18:19:46.702Z,94759.34
2022-09-26T18:22:19.018Z,94766.47
2022-09-26T18:24:51.893Z,94769.63
2022-09-26T18:27:18.625Z,94763.75
2022-09-26T18:29:48.546Z,94758.94
2022-09-26T18:32:39.019Z,94771.19
2022-09-26T18:35:14.603Z,94766.13
2022-09-26T18:37:41.187Z,94772.50
2022-09-26T18:40:11.716Z,94772.50
2022-09-26T18:42:38.604Z,94769.03
2022-09-26T18:45:07.919Z,94765.56
2022-09-26T18:47:38.694Z,94764.47
2022-09-26T18:50:06.176Z,94758.88
2022-09-26T18:52:32.769Z,94755.66
2022-09-26T18:55:17.839Z,94750.06
2022-09-26T18:58:02.903Z,94753.25
2022-09-26T19:00:29.483Z,94750.59
2022-09-26T19:02:57.197Z,94748.75
2022-09-26T19:05:25.768Z,94757.44
2022-09-26T19:07:52.358Z,94753.75
2022-09-26T19:10:22.304Z,94752.94
2022-09-26T19:12:48.881Z,94751.34
2022-09-26T19:15:16.135Z,94748.44
2022-09-26T19:17:43.448Z,94748.44
2022-09-26T19:20:10.120Z,94756.66
2022-09-26T19:22:36.941Z,94755.84
2022-09-26T19:25:03.914Z,94750.53
2022-09-26T19:27:44.985Z,94752.63
2022-09-26T19:30:16.003Z,94748.13
2022-09-26T19:32:46.397Z,94753.69
2022-09-26T19:35:21.088Z,94753.16
2022-09-26T19:37:47.692Z,94759.53
2022-09-26T19:40:16.441Z,94751.00
2022-09-26T19:42:43.449Z,94753.91
2022-09-26T19:45:11.661Z,94748.81
2022-09-26T19:47:41.409Z,94748.81
2022-09-26T19:50:15.475Z,94748.81
2022-09-26T19:52:42.585Z,94749.88
2022-09-26T19:55:21.930Z,94752.22
2022-09-26T19:57:48.498Z,94756.22
2022-09-26T20:00:16.037Z,94756.22
2022-09-26T20:02:42.719Z,94757.50
2022-09-26T20:05:19.428Z,94762.25
2022-09-26T20:07:46.887Z,94757.19
2022-09-26T20:10:18.373Z,94765.16
2022-09-26T20:12:46.296Z,94766.78
2022-09-26T20:15:13.630Z,94772.09
2022-09-26T20:17:43.150Z,94764.66
2022-09-26T20:20:19.579Z,94771.03
2022-09-26T20:22:46.691Z,94776.84
2022-09-26T20:25:26.429Z,94768.88
2022-09-26T20:27:53.912Z,94773.38
2022-09-26T20:30:40.184Z,94761.16
2022-09-26T20:33:07.975Z,94765.66
2022-09-26T20:35:36.984Z,94764.06
2022-09-26T20:38:07.702Z,94763.25
2022-09-26T20:40:35.525Z,94760.84
2022-09-26T20:43:08.260Z,94766.16
2022-09-26T20:45:40.637Z,94764.53
2022-09-26T20:48:16.403Z,94760.28
2022-09-26T20:50:42.989Z,94765.03
2022-09-26T20:53:20.057Z,94761.31
2022-09-26T20:55:47.137Z,94762.94
2022-09-26T20:58:14.473Z,94761.31
2022-09-26T21:00:42.390Z,94760.00
2022-09-26T21:03:15.666Z,94764.47
2022-09-26T21:05:43.351Z,94760.53
2022-09-26T21:08:39.181Z,94764.22
2022-09-26T21:11:05.792Z,94757.63
2022-09-26T21:13:32.348Z,94754.41
2022-09-26T21:15:59.636Z,94754.41
2022-09-26T21:18:29.337Z,94753.91
2022-09-26T21:21:04.063Z,94751.25
2022-09-26T21:23:32.334Z,94748.59
2022-09-26T21:25:58.902Z,94746.75
2022-09-26T21:28:28.126Z,94750.22
2022-09-26T21:31:17.550Z,94752.31
2022-09-26T21:33:44.587Z,94744.09
2022-09-26T21:36:11.676Z,94747.56
2022-09-26T21:38:38.294Z,94739.59
2022-09-26T21:41:05.611Z,94743.59
2022-09-26T21:43:39.495Z,94735.38
2022-09-26T21:46:06.223Z,94726.88
2022-09-26T21:48:33.634Z,94733.47
2022-09-26T21:51:03.345Z,94728.97
2022-09-26T21:53:39.226Z,94715.94
2022-09-26T21:56:14.353Z,94716.72
2022-09-26T21:58:42.098Z,94715.69
2022-09-26T22:01:08.839Z,94715.94
2022-09-26T22:03:35.748Z,94707.97
2022-09-26T22:06:09.608Z,94716.16
2022-09-26T22:08:37.482Z,94710.31
2022-09-26T22:11:04.672Z,94718.28
2022-09-26T22:13:33.024Z,94724.06
2022-09-26T22:16:11.311Z,94721.94
2022-09-26T22:18:39.052Z,94727.25
2022-09-26T22:21:10.453Z,94718.25
2022-09-26T22:23:37.559Z,94715.59
2022-09-26T22:26:04.267Z,94714.53
2022-09-26T22:28:30.930Z,94712.41
2022-09-26T22:31:04.889Z,94700.97
2022-09-26T22:33:31.617Z,94702.59
2022-09-26T22:35:58.274Z,94703.38
2022-09-26T22:38:25.011Z,94695.66
2022-09-26T22:40:59.703Z,94693.25
2022-09-26T22:43:27.033Z,94696.72
2022-09-26T22:45:53.980Z,94690.34
2022-09-26T22:48:20.674Z,94687.13
2022-09-26T22:50:47.304Z,94685.28
2022-09-26T22:53:13.943Z,94689.03
2022-09-26T22:55:40.521Z,94681.03
2022-09-26T22:58:07.182Z,94677.31
2022-09-26T23:00:33.826Z,94677.31
2022-09-26T23:03:00.388Z,94676.78
2022-09-26T23:05:27.136Z,94677.56
2022-09-26T23:07:54.786Z,94671.47
2022-09-26T23:10:22.294Z,94671.47
2022-09-26T23:12:50.633Z,94664.56
2022-09-26T23:15:18.349Z,94670.84
2022-09-26T23:17:46.497Z,94670.84
2022-09-26T23:20:13.063Z,94669.81
2022-09-26T23:22:39.866Z,94666.66
2022-09-26T23:25:08.200Z,94676.22
2022-09-26T23:27:35.746Z,94666.41
2022-09-26T23:30:02.380Z,94672.53
2022-09-26T23:32:29.006Z,94667.22
2022-09-26T23:34:55.563Z,94658.16
2022-09-26T23:37:22.481Z,94660.81
2022-09-26T23:39:49.064Z,94667.75
2022-09-26T23:42:15.619Z,94654.47
2022-09-26T23:44:42.341Z,94663.22
2022-09-26T23:47:08.955Z,94653.41
2022-09-26T23:49:35.563Z,94660.81
2022-09-26T23:52:02.771Z,94650.72
2022-09-26T23:54:29.364Z,94644.84
2022-09-26T23:56:55.939Z,94651.78
2022-09-26T23:59:22.485Z,94643.25
